createdAt,value
2017-10-28T00:01:15.379Z,7.83
2017-10-28T00:03:42.940Z,9.40
2017-10-28T00:06:10.468Z,7.20
2017-10-28T00:08:38.783Z,4.47
2017-10-28T00:11:06.330Z,8.33
2017-10-28T00:13:33.897Z,8.50
2017-10-28T00:16:01.422Z,12.67
2017-10-28T00:18:29.752Z,14.63
2017-10-28T00:20:57.288Z,12.10
2017-10-28T00:23:24.848Z,10.97
2017-10-28T00:25:52.378Z,6.80
2017-10-28T00:28:20.674Z,9.80
2017-10-28T00:30:53.940Z,6.77
2017-10-28T00:33:27.947Z,13.33
2017-10-28T00:36:01.120Z,9.77
2017-10-28T00:38:28.652Z,8.00
2017-10-28T00:40:56.215Z,5.67
2017-10-28T00:43:23.740Z,9.70
2017-10-28T00:45:52.060Z,7.03
2017-10-28T00:48:19.588Z,8.70
2017-10-28T00:50:47.146Z,7.97
2017-10-28T00:53:14.670Z,6.80
2017-10-28T00:55:42.237Z,13.63
2017-10-28T00:58:10.540Z,11.27
2017-10-28T01:00:38.096Z,7.40
2017-10-28T01:03:05.627Z,10.90
2017-10-28T01:05:33.174Z,8.87
2017-10-28T01:08:00.703Z,8.73
2017-10-28T01:10:28.256Z,11.90
2017-10-28T01:12:55.782Z,12.10
2017-10-28T01:15:24.098Z,9.20
2017-10-28T01:17:51.638Z,7.20
2017-10-28T01:20:19.186Z,9.50
2017-10-28T01:22:46.726Z,11.03
2017-10-28T01:25:15.053Z,14.60
2017-10-28T01:27:42.574Z,8.17
2017-10-28T01:30:10.894Z,9.20
2017-10-28T01:32:38.422Z,11.63
2017-10-28T01:35:05.978Z,11.07
2017-10-28T01:37:34.263Z,7.27
2017-10-28T01:40:01.825Z,15.03
2017-10-28T01:42:29.353Z,9.77
2017-10-28T01:44:56.907Z,13.07
2017-10-28T01:47:24.434Z,11.40
2017-10-28T01:49:51.987Z,11.97
2017-10-28T01:52:19.519Z,8.60
2017-10-28T01:54:47.074Z,11.57
2017-10-28T01:57:15.361Z,8.80
2017-10-28T01:59:42.910Z,8.77
2017-10-28T02:02:10.454Z,13.43
2017-10-28T02:04:38.775Z,10.10
2017-10-28T02:07:06.300Z,8.43
2017-10-28T02:09:34.599Z,13.67
2017-10-28T02:12:02.164Z,13.87
2017-10-28T02:14:29.703Z,9.00
2017-10-28T02:16:57.272Z,14.20
2017-10-28T02:19:24.800Z,12.50
2017-10-28T02:21:52.359Z,11.47
2017-10-28T02:24:19.887Z,11.37
2017-10-28T02:26:47.445Z,9.17
2017-10-28T02:29:14.971Z,14.63
2017-10-28T02:31:42.526Z,11.37
2017-10-28T02:34:10.060Z,13.53
2017-10-28T02:36:37.620Z,17.40
2017-10-28T02:39:05.935Z,14.17
2017-10-28T02:41:33.487Z,18.53
2017-10-28T02:44:01.020Z,29.40
2017-10-28T02:46:29.346Z,19.20
2017-10-28T02:48:56.891Z,29.00
2017-10-28T02:51:24.446Z,28.33
2017-10-28T02:53:51.987Z,29.53
2017-10-28T02:56:20.309Z,29.40
2017-10-28T02:58:47.846Z,29.97
2017-10-28T03:01:15.403Z,29.60
2017-10-28T03:03:42.931Z,23.30
2017-10-28T03:06:11.258Z,32.83
2017-10-28T03:08:38.792Z,24.23
2017-10-28T03:11:06.344Z,23.47
2017-10-28T03:13:34.643Z,28.23
2017-10-28T03:16:02.199Z,25.97
2017-10-28T03:18:29.736Z,25.67
2017-10-28T03:20:58.063Z,28.47
2017-10-28T03:23:25.607Z,22.87
2017-10-28T03:25:53.172Z,28.13
2017-10-28T03:28:20.713Z,20.93
2017-10-28T03:30:48.285Z,19.23
2017-10-28T03:33:15.819Z,22.93
2017-10-28T03:35:44.150Z,24.17
2017-10-28T03:38:11.685Z,19.23
2017-10-28T03:40:39.247Z,23.80
2017-10-28T03:43:06.792Z,21.70
2017-10-28T03:45:34.347Z,20.90
2017-10-28T03:48:01.875Z,23.80
2017-10-28T03:50:29.431Z,29.33
2017-10-28T03:52:56.966Z,19.50
2017-10-28T03:55:24.518Z,24.57
2017-10-28T03:57:52.048Z,26.70
2017-10-28T04:00:19.598Z,23.13
2017-10-28T04:02:47.138Z,28.13
2017-10-28T04:05:15.475Z,24.43
2017-10-28T04:07:43.018Z,24.07
2017-10-28T04:10:10.591Z,25.37
2017-10-28T04:12:38.123Z,25.80
2017-10-28T04:15:05.658Z,29.40
2017-10-28T04:17:33.983Z,26.57
2017-10-28T04:20:01.516Z,25.07
2017-10-28T04:22:29.080Z,20.93
2017-10-28T04:24:56.611Z,23.60
2017-10-28T04:27:24.939Z,27.80
2017-10-28T04:29:52.459Z,32.20
2017-10-28T04:32:20.778Z,28.13
2017-10-28T04:34:48.318Z,23.00
2017-10-28T04:37:15.872Z,24.80
2017-10-28T04:39:43.404Z,26.57
2017-10-28T04:42:11.736Z,27.23
2017-10-28T04:44:39.281Z,30.60
2017-10-28T04:47:06.840Z,26.53
2017-10-28T04:49:34.367Z,29.20
2017-10-28T04:52:02.686Z,25.03
2017-10-28T04:54:30.220Z,26.37
2017-10-28T04:56:57.779Z,27.40
2017-10-28T04:59:25.311Z,29.33
2017-10-28T05:01:52.871Z,22.43
2017-10-28T05:04:21.176Z,23.97
2017-10-28T05:06:48.744Z,34.57
2017-10-28T05:09:16.277Z,29.40
2017-10-28T05:11:44.608Z,21.10
2017-10-28T05:14:12.146Z,19.23
2017-10-28T05:16:39.698Z,27.00
2017-10-28T05:19:07.231Z,24.70
2017-10-28T05:21:35.551Z,22.70
2017-10-28T05:24:03.080Z,22.93
2017-10-28T05:26:31.394Z,18.37
2017-10-28T05:28:58.923Z,17.90
2017-10-28T05:31:26.486Z,24.33
2017-10-28T05:33:54.019Z,20.27
2017-10-28T05:36:22.346Z,21.93
2017-10-28T05:38:49.878Z,24.53
2017-10-28T05:41:17.435Z,23.47
2017-10-28T05:43:44.996Z,21.47
2017-10-28T05:46:12.550Z,27.97
2017-10-28T05:48:40.082Z,24.83
2017-10-28T05:51:07.651Z,28.37
2017-10-28T05:53:35.187Z,27.77
2017-10-28T05:56:02.742Z,22.73
2017-10-28T05:58:30.283Z,22.03
2017-10-28T06:00:57.849Z,28.43
2017-10-28T06:03:25.407Z,19.00
2017-10-28T06:05:52.963Z,23.20
2017-10-28T06:08:20.498Z,21.63
2017-10-28T06:10:48.070Z,19.57
2017-10-28T06:13:15.606Z,23.40
2017-10-28T06:15:43.926Z,22.13
2017-10-28T06:18:11.455Z,35.53
2017-10-28T06:20:39.010Z,25.13
2017-10-28T06:23:06.546Z,31.80
2017-10-28T06:25:34.076Z,27.07
2017-10-28T06:28:01.636Z,30.47
2017-10-28T06:30:29.162Z,44.83
2017-10-28T06:32:56.719Z,50.47
2017-10-28T06:35:24.281Z,34.97
2017-10-28T06:37:51.835Z,44.97
2017-10-28T06:40:19.370Z,38.20
2017-10-28T06:42:47.695Z,33.67
2017-10-28T06:45:15.235Z,33.37
2017-10-28T06:47:42.791Z,29.60
2017-10-28T06:50:10.318Z,32.13
2017-10-28T06:52:37.866Z,34.27
2017-10-28T06:55:05.408Z,41.03
2017-10-28T06:57:32.966Z,30.90
2017-10-28T07:00:00.500Z,36.17
2017-10-28T07:02:28.060Z,38.23
2017-10-28T07:04:55.594Z,39.57
2017-10-28T07:07:23.918Z,47.17
2017-10-28T07:09:51.455Z,35.57
2017-10-28T07:12:19.015Z,33.00
2017-10-28T07:14:46.547Z,34.00
2017-10-28T07:17:14.867Z,36.60
2017-10-28T07:19:42.404Z,31.80
2017-10-28T07:22:09.966Z,29.70
2017-10-28T07:24:37.490Z,37.53
2017-10-28T07:27:05.051Z,37.77
2017-10-28T07:29:32.579Z,35.47
2017-10-28T07:32:00.127Z,34.23
2017-10-28T07:34:27.666Z,31.33
2017-10-28T07:36:55.224Z,34.73
2017-10-28T07:39:22.753Z,41.43
2017-10-28T07:41:51.072Z,33.93
2017-10-28T07:44:18.620Z,31.87
2017-10-28T07:46:46.186Z,29.50
2017-10-28T07:49:13.718Z,31.07
2017-10-28T07:51:42.034Z,34.60
2017-10-28T07:54:09.567Z,34.17
2017-10-28T07:56:37.115Z,30.13
2017-10-28T07:59:05.411Z,41.43
2017-10-28T08:01:32.967Z,37.60
2017-10-28T08:04:06.234Z,41.87
2017-10-28T08:06:33.786Z,35.27
2017-10-28T08:09:01.327Z,39.77
2017-10-28T08:11:28.887Z,28.50
2017-10-28T08:13:56.419Z,33.87
2017-10-28T08:16:23.969Z,25.50
2017-10-28T08:18:51.494Z,30.17
2017-10-28T08:21:19.819Z,31.40
2017-10-28T08:23:47.348Z,25.40
2017-10-28T08:26:15.672Z,26.13
2017-10-28T08:28:43.209Z,28.67
2017-10-28T08:31:10.734Z,22.97
2017-10-28T08:33:39.055Z,17.77
2017-10-28T08:36:06.586Z,22.43
2017-10-28T08:38:35.298Z,22.83
2017-10-28T08:41:04.338Z,20.03
2017-10-28T08:43:32.722Z,22.20
2017-10-28T08:46:00.254Z,18.50
2017-10-28T08:48:27.815Z,23.13
2017-10-28T08:50:55.344Z,24.37
2017-10-28T08:53:22.898Z,15.30
2017-10-28T08:55:50.586Z,18.43
2017-10-28T08:58:18.676Z,15.83
2017-10-28T09:00:46.283Z,15.70
2017-10-28T09:03:13.847Z,17.70
2017-10-28T09:05:41.380Z,15.90
2017-10-28T09:08:10.111Z,17.00
2017-10-28T09:10:37.674Z,15.07
2017-10-28T09:13:05.219Z,21.07
2017-10-28T09:15:32.746Z,14.07
2017-10-28T09:18:01.072Z,14.03
2017-10-28T09:20:28.599Z,14.73
2017-10-28T09:22:56.150Z,13.13
2017-10-28T09:25:24.444Z,13.23
2017-10-28T09:27:52.001Z,14.83
2017-10-28T09:30:19.539Z,12.40
2017-10-28T09:32:47.857Z,14.57
2017-10-28T09:35:15.380Z,8.77
2017-10-28T09:37:43.723Z,9.43
2017-10-28T09:40:11.258Z,10.10
2017-10-28T09:42:38.820Z,11.70
2017-10-28T09:45:06.347Z,11.67
2017-10-28T09:47:34.669Z,14.90
2017-10-28T09:50:02.194Z,17.00
2017-10-28T09:52:29.753Z,10.60
2017-10-28T09:54:57.280Z,10.70
2017-10-28T09:57:24.845Z,11.23
2017-10-28T09:59:52.368Z,8.67
2017-10-28T10:02:19.924Z,10.30
2017-10-28T10:04:47.455Z,11.57
2017-10-28T10:07:15.011Z,11.17
2017-10-28T10:09:42.548Z,10.43
2017-10-28T10:12:10.876Z,10.57
2017-10-28T10:14:38.398Z,8.80
2017-10-28T10:17:06.706Z,10.03
2017-10-28T10:19:34.227Z,11.50
2017-10-28T10:22:02.543Z,10.03
2017-10-28T10:24:30.071Z,11.20
2017-10-28T10:26:58.383Z,9.30
2017-10-28T10:29:25.918Z,8.47
2017-10-28T10:31:53.489Z,12.00
2017-10-28T10:34:21.019Z,7.33
2017-10-28T10:36:49.349Z,10.63
2017-10-28T10:39:17.630Z,9.23
2017-10-28T10:41:45.154Z,8.27
2017-10-28T10:44:12.710Z,9.33
2017-10-28T10:46:40.238Z,10.43
2017-10-28T10:49:07.796Z,16.40
2017-10-28T10:51:35.323Z,10.00
2017-10-28T10:54:02.871Z,14.93
2017-10-28T10:56:30.404Z,15.20
2017-10-28T10:58:57.956Z,11.00
2017-10-28T11:01:26.248Z,12.30
2017-10-28T11:03:53.799Z,11.20
2017-10-28T11:06:21.453Z,11.43
2017-10-28T11:08:49.023Z,10.63
2017-10-28T11:11:16.562Z,11.80
2017-10-28T11:13:44.889Z,11.70
2017-10-28T11:16:12.423Z,13.27
2017-10-28T11:18:39.979Z,10.63
2017-10-28T11:21:07.512Z,9.63
2017-10-28T11:23:35.071Z,6.60
2017-10-28T11:26:03.370Z,9.03
2017-10-28T11:28:30.923Z,11.33
2017-10-28T11:30:59.219Z,11.30
2017-10-28T11:33:26.770Z,8.80
2017-10-28T11:35:54.298Z,11.07
2017-10-28T11:38:21.852Z,8.60
2017-10-28T11:40:49.384Z,11.53
2017-10-28T11:43:16.963Z,11.40
2017-10-28T11:45:44.496Z,7.27
2017-10-28T11:48:12.049Z,14.70
2017-10-28T11:50:39.575Z,8.10
2017-10-28T11:53:07.901Z,11.87
2017-10-28T11:55:35.422Z,7.77
2017-10-28T11:58:02.971Z,8.60
2017-10-28T12:00:31.263Z,6.43
2017-10-28T12:02:58.815Z,16.60
2017-10-28T12:05:27.102Z,8.60
2017-10-28T12:07:54.643Z,8.53
2017-10-28T12:10:22.932Z,8.87
2017-10-28T12:12:50.496Z,8.30
2017-10-28T12:15:18.027Z,7.37
2017-10-28T12:17:45.591Z,13.10
2017-10-28T12:20:13.113Z,10.80
2017-10-28T12:22:40.670Z,10.47
2017-10-28T12:25:08.196Z,6.93
2017-10-28T12:27:35.751Z,8.03
2017-10-28T12:30:03.283Z,10.93
2017-10-28T12:32:30.843Z,7.80
2017-10-28T12:34:59.146Z,7.60
2017-10-28T12:37:27.467Z,9.00
2017-10-28T12:39:55.012Z,12.37
2017-10-28T12:42:22.558Z,7.80
2017-10-28T12:44:50.081Z,9.83
2017-10-28T12:47:18.411Z,10.17
2017-10-28T12:49:45.944Z,7.10
2017-10-28T12:52:13.475Z,7.53
2017-10-28T12:54:41.043Z,10.10
2017-10-28T12:57:09.349Z,8.80
2017-10-28T12:59:36.923Z,8.50
2017-10-28T13:02:04.452Z,8.80
2017-10-28T13:04:32.768Z,7.00
2017-10-28T13:07:00.309Z,7.23
2017-10-28T13:09:27.865Z,8.67
2017-10-28T13:11:55.403Z,13.70
2017-10-28T13:14:23.726Z,6.93
2017-10-28T13:16:51.249Z,8.13
2017-10-28T13:19:19.571Z,9.10
2017-10-28T13:21:47.097Z,8.43
2017-10-28T13:24:14.669Z,8.97
2017-10-28T13:26:42.209Z,8.50
2017-10-28T13:29:09.768Z,7.80
2017-10-28T13:31:37.303Z,10.47
2017-10-28T13:34:04.861Z,9.67
2017-10-28T13:36:32.391Z,11.87
2017-10-28T13:38:59.947Z,9.40
2017-10-28T13:41:27.555Z,7.93
2017-10-28T13:43:55.875Z,12.37
2017-10-28T13:46:23.402Z,11.73
2017-10-28T13:48:50.959Z,10.07
2017-10-28T13:51:18.498Z,8.33
2017-10-28T13:53:46.055Z,10.13
2017-10-28T13:56:13.582Z,9.73
2017-10-28T13:58:41.130Z,7.53
2017-10-28T14:01:08.659Z,8.60
2017-10-28T14:03:36.212Z,8.10
2017-10-28T14:06:04.503Z,7.77
2017-10-28T14:08:32.059Z,8.37
2017-10-28T14:10:59.595Z,7.40
2017-10-28T14:13:27.907Z,9.40
2017-10-28T14:15:55.447Z,8.47
2017-10-28T14:18:23.763Z,9.47
2017-10-28T14:20:51.291Z,9.73
2017-10-28T14:23:18.847Z,7.93
2017-10-28T14:25:47.139Z,10.27
2017-10-28T14:28:14.693Z,8.40
2017-10-28T14:30:42.217Z,9.77
2017-10-28T14:33:09.772Z,6.93
2017-10-28T14:35:37.304Z,7.00
2017-10-28T14:38:04.855Z,10.50
2017-10-28T14:40:32.384Z,8.10
2017-10-28T14:42:59.943Z,8.47
2017-10-28T14:45:27.483Z,10.27
2017-10-28T14:47:55.799Z,7.70
2017-10-28T14:50:23.323Z,7.77
2017-10-28T14:52:51.643Z,14.10
2017-10-28T14:55:19.164Z,12.33
2017-10-28T14:57:47.481Z,8.57
2017-10-28T15:00:15.007Z,9.37
2017-10-28T15:02:43.302Z,13.03
2017-10-28T15:05:10.855Z,11.37
2017-10-28T15:07:38.387Z,12.83
2017-10-28T15:10:05.938Z,9.77
2017-10-28T15:12:33.459Z,8.07
2017-10-28T15:15:01.010Z,7.90
2017-10-28T15:17:28.530Z,8.57
2017-10-28T15:19:56.846Z,9.00
2017-10-28T15:22:24.380Z,7.87
2017-10-28T15:24:52.690Z,7.67
2017-10-28T15:27:20.207Z,7.80
2017-10-28T15:29:48.531Z,7.07
2017-10-28T15:32:16.055Z,8.60
2017-10-28T15:34:44.368Z,7.70
2017-10-28T15:37:11.903Z,11.00
2017-10-28T15:39:39.453Z,9.53
2017-10-28T15:42:06.986Z,9.70
2017-10-28T15:44:34.536Z,11.80
2017-10-28T15:47:02.077Z,10.70
2017-10-28T15:49:29.638Z,9.47
2017-10-28T15:51:57.163Z,7.67
2017-10-28T15:54:24.724Z,10.73
2017-10-28T15:56:52.264Z,13.80
2017-10-28T15:59:20.592Z,18.20
2017-10-28T16:01:48.137Z,10.43
2017-10-28T16:04:15.676Z,13.10
2017-10-28T16:06:43.238Z,12.43
2017-10-28T16:09:10.770Z,13.00
2017-10-28T16:11:39.087Z,9.40
2017-10-28T16:14:06.616Z,13.80
2017-10-28T16:16:34.931Z,10.00
2017-10-28T16:19:02.468Z,12.27
2017-10-28T16:21:30.019Z,10.20
2017-10-28T16:23:57.551Z,11.30
2017-10-28T16:26:25.099Z,8.93
2017-10-28T16:28:52.630Z,10.70
2017-10-28T16:31:20.187Z,9.10
2017-10-28T16:33:47.721Z,9.20
2017-10-28T16:36:15.276Z,10.17
2017-10-28T16:38:42.811Z,9.50
2017-10-28T16:41:10.371Z,10.57
2017-10-28T16:43:37.897Z,8.27
2017-10-28T16:46:05.443Z,11.10
2017-10-28T16:48:32.963Z,8.10
2017-10-28T16:51:01.283Z,12.30
2017-10-28T16:53:28.807Z,9.20
2017-10-28T16:55:57.122Z,8.10
2017-10-28T16:58:24.652Z,9.20
2017-10-28T17:00:52.210Z,12.67
2017-10-28T17:03:19.767Z,11.23
2017-10-28T17:05:47.290Z,9.30
2017-10-28T17:08:14.860Z,8.27
2017-10-28T17:10:42.387Z,9.97
2017-10-28T17:13:09.939Z,16.43
2017-10-28T17:15:37.471Z,13.97
2017-10-28T17:18:05.023Z,12.27
2017-10-28T17:20:33.323Z,20.03
2017-10-28T17:23:00.878Z,14.33
2017-10-28T17:25:28.404Z,13.50
2017-10-28T17:27:56.749Z,14.97
2017-10-28T17:30:24.274Z,11.23
2017-10-28T17:32:51.840Z,12.80
2017-10-28T17:35:19.379Z,10.80
2017-10-28T17:37:46.947Z,12.17
2017-10-28T17:40:14.488Z,16.97
2017-10-28T17:42:42.815Z,13.10
2017-10-28T17:45:10.351Z,14.27
2017-10-28T17:47:37.910Z,14.67
2017-10-28T17:50:05.440Z,9.13
2017-10-28T17:52:33.740Z,17.20
2017-10-28T17:55:01.295Z,15.47
2017-10-28T17:57:28.879Z,13.83
2017-10-28T17:59:56.437Z,10.73
2017-10-28T18:02:23.981Z,12.07
2017-10-28T18:04:51.543Z,13.63
2017-10-28T18:07:19.079Z,18.77
2017-10-28T18:09:47.412Z,11.73
2017-10-28T18:12:14.940Z,8.50
2017-10-28T18:14:42.494Z,12.80
2017-10-28T18:17:10.032Z,12.97
2017-10-28T18:19:38.356Z,12.53
2017-10-28T18:22:05.887Z,12.67
2017-10-28T18:24:33.450Z,11.17
2017-10-28T18:27:00.994Z,13.00
2017-10-28T18:29:29.318Z,8.27
2017-10-28T18:31:56.848Z,9.37
2017-10-28T18:34:24.421Z,10.80
2017-10-28T18:36:51.963Z,15.50
2017-10-28T18:39:19.526Z,10.30
2017-10-28T18:41:47.066Z,10.73
2017-10-28T18:44:15.387Z,17.93
2017-10-28T18:46:42.924Z,15.33
2017-10-28T18:49:10.488Z,10.33
2017-10-28T18:51:38.017Z,12.37
2017-10-28T18:54:06.344Z,14.03
2017-10-28T18:56:33.875Z,12.67
2017-10-28T18:59:01.436Z,10.40
2017-10-28T19:01:28.967Z,13.83
2017-10-28T19:03:56.531Z,10.90
2017-10-28T19:06:24.836Z,9.73
2017-10-28T19:08:52.389Z,10.17
2017-10-28T19:11:19.928Z,11.63
2017-10-28T19:13:48.282Z,14.40
2017-10-28T19:16:15.819Z,12.00
2017-10-28T19:18:43.343Z,11.77
2017-10-28T19:21:11.022Z,11.00
2017-10-28T19:23:38.555Z,15.80
2017-10-28T19:26:06.879Z,13.73
2017-10-28T19:28:34.415Z,12.33
2017-10-28T19:31:01.979Z,10.03
2017-10-28T19:33:29.513Z,10.20
2017-10-28T19:35:57.831Z,9.30
2017-10-28T19:38:25.364Z,10.70
2017-10-28T19:40:52.923Z,22.33
2017-10-28T19:43:20.459Z,13.13
2017-10-28T19:45:48.798Z,13.80
2017-10-28T19:48:17.092Z,9.43
2017-10-28T19:50:44.654Z,15.40
2017-10-28T19:53:12.181Z,9.87
2017-10-28T19:55:39.736Z,11.90
2017-10-28T19:58:07.267Z,11.77
2017-10-28T20:00:35.595Z,10.10
2017-10-28T20:03:03.147Z,12.80
2017-10-28T20:05:30.703Z,15.60
2017-10-28T20:07:58.243Z,14.40
2017-10-28T20:10:25.799Z,11.67
2017-10-28T20:12:53.336Z,10.17
2017-10-28T20:15:21.659Z,10.50
2017-10-28T20:17:49.188Z,11.77
2017-10-28T20:20:16.745Z,12.67
2017-10-28T20:22:44.283Z,12.23
2017-10-28T20:25:11.845Z,12.63
2017-10-28T20:27:40.139Z,10.30
2017-10-28T20:30:08.462Z,11.40
2017-10-28T20:32:35.996Z,12.30
2017-10-28T20:35:03.559Z,13.30
2017-10-28T20:37:31.091Z,8.77
2017-10-28T20:39:59.419Z,9.23
2017-10-28T20:42:26.952Z,10.80
2017-10-28T20:44:54.521Z,10.03
2017-10-28T20:47:22.055Z,14.20
2017-10-28T20:49:49.722Z,15.27
2017-10-28T20:52:17.256Z,11.20
2017-10-28T20:54:45.584Z,12.57
2017-10-28T20:57:13.123Z,10.87
2017-10-28T20:59:40.683Z,17.03
2017-10-28T21:02:08.232Z,12.27
2017-10-28T21:04:35.787Z,21.87
2017-10-28T21:07:04.080Z,13.00
2017-10-28T21:09:31.661Z,9.67
2017-10-28T21:11:59.202Z,15.27
2017-10-28T21:14:26.763Z,20.33
2017-10-28T21:19:47.791Z,15.20
2017-10-28T21:22:15.367Z,12.90
2017-10-28T21:24:42.927Z,13.07
2017-10-28T21:27:10.462Z,10.83
2017-10-28T21:29:38.023Z,13.67
2017-10-28T21:32:05.563Z,13.57
2017-10-28T21:34:33.904Z,13.47
2017-10-28T21:37:01.428Z,8.63
2017-10-28T21:39:28.987Z,15.80
2017-10-28T21:41:56.532Z,14.67
2017-10-28T21:44:24.103Z,12.50
2017-10-28T21:46:51.643Z,14.13
2017-10-28T21:49:19.952Z,14.00
2017-10-28T21:51:47.522Z,14.43
2017-10-28T21:54:15.056Z,12.97
2017-10-28T21:56:42.637Z,11.00
2017-10-28T21:59:10.187Z,11.60
2017-10-28T22:01:37.743Z,9.00
2017-10-28T22:04:05.274Z,8.90
2017-10-28T22:06:33.649Z,10.57
2017-10-28T22:09:01.951Z,15.87
2017-10-28T22:11:29.508Z,9.70
2017-10-28T22:13:57.040Z,11.80
2017-10-28T22:16:24.611Z,13.70
2017-10-28T22:18:52.918Z,12.30
2017-10-28T22:21:20.475Z,11.37
2017-10-28T22:23:48.018Z,8.60
2017-10-28T22:26:16.338Z,11.23
2017-10-28T22:28:44.634Z,8.13
2017-10-28T22:51:45.999Z,13.17
2017-10-28T22:54:19.543Z,11.90
2017-10-28T22:56:47.091Z,10.67
2017-10-28T22:59:14.635Z,16.17
2017-10-28T23:01:42.206Z,12.20
2017-10-28T23:04:09.738Z,12.10
2017-10-28T23:06:43.406Z,15.10
2017-10-28T23:09:11.700Z,14.13
2017-10-28T23:11:39.262Z,14.20
2017-10-28T23:14:06.791Z,15.20
2017-10-28T23:16:35.111Z,13.37
2017-10-28T23:19:02.641Z,10.97
2017-10-28T23:21:30.210Z,17.90
2017-10-28T23:23:57.739Z,15.57
2017-10-28T23:26:25.315Z,13.40
2017-10-28T23:28:53.611Z,13.17
2017-10-28T23:31:21.168Z,16.40
2017-10-28T23:33:48.704Z,14.33
2017-10-28T23:36:17.026Z,17.03
2017-10-28T23:38:44.559Z,15.70
2017-10-28T23:41:12.123Z,15.07
2017-10-28T23:43:39.668Z,11.80
2017-10-28T23:46:07.987Z,16.20
2017-10-28T23:48:35.524Z,14.40
2017-10-28T23:51:03.086Z,17.60
2017-10-28T23:53:30.618Z,13.03
2017-10-28T23:55:58.947Z,15.37
2017-10-28T23:58:26.478Z,19.10
